Time;durP1;ratioP1;P1;durP2;ratioP2;P2;SDS_P1;SDS_P2;PMS_P1;PMS_P2;Temp;Humidity;BMP_temperature;BMP_pressure;BME280_temperature;BME280_humidity;BME280_pressure;Samples;Min_cycle;Max_cycle;Signal;HPM_P1;HPM_P2
2022/07/17 00:01:57;;;;;;;2.75;2.55;;;16.90;88.60;;;;;;5054030;28;20181;-64
2022/07/17 00:04:22;;;;;;;3.15;2.47;;;16.80;89.60;;;;;;5054453;28;20181;-64
2022/07/17 00:06:48;;;;;;;4.05;2.42;;;16.70;89.90;;;;;;5054109;28;20177;-64
2022/07/17 00:09:13;;;;;;;3.35;2.47;;;16.70;90.40;;;;;;5054228;28;20181;-64
2022/07/17 00:11:39;;;;;;;4.35;2.40;;;16.70;90.50;;;;;;5054231;28;20173;-64
2022/07/17 00:14:05;;;;;;;8.77;4.90;;;16.70;90.60;;;;;;5051939;28;20220;-64
2022/07/17 00:16:30;;;;;;;8.35;3.45;;;16.70;90.70;;;;;;5047134;28;20193;-65
2022/07/17 00:18:56;;;;;;;11.43;3.67;;;16.60;90.90;;;;;;5053845;28;20213;-64
2022/07/17 00:21:22;;;;;;;5.20;2.60;;;16.60;91.20;;;;;;5053214;28;20225;-64
2022/07/17 00:23:47;;;;;;;4.10;2.60;;;16.60;91.40;;;;;;5053885;28;20549;-64
2022/07/17 00:26:12;;;;;;;2.88;2.20;;;16.60;91.50;;;;;;5053902;28;20181;-65
2022/07/17 00:28:38;;;;;;;4.53;2.50;;;16.50;91.50;;;;;;5053484;28;20537;-65
2022/07/17 00:31:04;;;;;;;4.50;2.70;;;16.50;91.80;;;;;;5053560;28;20197;-64
2022/07/17 00:33:29;;;;;;;2.88;2.67;;;16.40;92.00;;;;;;5052328;28;20217;-64
2022/07/17 00:35:55;;;;;;;2.92;2.72;;;16.40;92.10;;;;;;5053327;28;20185;-64
2022/07/17 00:38:20;;;;;;;3.75;2.45;;;16.40;92.40;;;;;;5053661;28;20173;-65
2022/07/17 00:40:46;;;;;;;3.22;2.40;;;16.40;92.50;;;;;;5053373;28;20176;-64
2022/07/17 00:43:11;;;;;;;3.05;2.30;;;16.30;92.70;;;;;;5053619;28;20200;-64
2022/07/17 00:45:37;;;;;;;2.65;2.45;;;16.30;92.60;;;;;;5053197;28;20656;-64
2022/07/17 00:48:05;;;;;;;5.25;2.30;;;16.20;92.90;;;;;;5053208;28;20185;-64
2022/07/17 00:50:36;;;;;;;5.75;2.70;;;16.20;92.90;;;;;;5052984;28;20636;-65
2022/07/17 00:53:02;;;;;;;4.60;2.75;;;16.10;93.00;;;;;;5053374;28;20189;-64
2022/07/17 00:55:28;;;;;;;3.28;2.70;;;16.00;93.40;;;;;;5053325;28;20339;-65
2022/07/17 00:57:55;;;;;;;2.60;2.35;;;16.00;93.50;;;;;;5046554;28;20289;-65
2022/07/17 01:00:21;;;;;;;2.80;2.33;;;16.00;93.50;;;;;;5052758;28;20182;-65
2022/07/17 01:02:49;;;;;;;3.05;2.50;;;15.90;93.60;;;;;;5052438;28;20173;-64
2022/07/17 01:05:16;;;;;;;2.15;1.95;;;15.90;93.60;;;;;;5052610;28;20186;-65
2022/07/17 01:07:42;;;;;;;2.65;2.35;;;15.90;93.80;;;;;;5033491;28;20645;-64
2022/07/17 01:10:08;;;;;;;2.08;1.95;;;15.90;93.90;;;;;;5041118;28;20213;-64
2022/07/17 01:12:34;;;;;;;2.72;2.53;;;15.80;93.90;;;;;;5052866;28;20189;-64
2022/07/17 01:15:00;;;;;;;3.40;2.20;;;15.70;94.20;;;;;;5047544;28;20236;-64
2022/07/17 01:17:26;;;;;;;2.60;2.40;;;15.70;94.00;;;;;;5052902;28;20231;-64
2022/07/17 01:19:53;;;;;;;2.75;2.55;;;15.70;94.30;;;;;;5052919;28;20188;-64
2022/07/17 01:22:19;;;;;;;3.15;2.42;;;15.60;94.40;;;;;;5051293;28;20232;-64
2022/07/17 01:24:45;;;;;;;2.75;2.22;;;15.60;94.50;;;;;;5052722;28;20217;-65
2022/07/17 01:27:10;;;;;;;2.70;1.88;;;15.60;94.70;;;;;;5053083;28;20675;-64
2022/07/17 01:29:37;;;;;;;2.53;2.33;;;15.60;94.70;;;;;;5052464;28;20232;-65
2022/07/17 01:32:03;;;;;;;2.90;2.35;;;15.60;94.80;;;;;;5052593;28;20261;-65
2022/07/17 01:34:29;;;;;;;3.20;2.17;;;15.50;94.90;;;;;;5052454;28;20239;-65
2022/07/17 01:36:54;;;;;;;2.42;2.22;;;15.50;94.80;;;;;;5052829;28;20219;-64
2022/07/17 01:42:05;;;;;;;2.30;2.10;;;15.40;94.90;;;;;;5052578;28;20193;-65
2022/07/17 01:44:31;;;;;;;2.75;2.35;;;15.40;94.90;;;;;;5052378;28;20181;-65
2022/07/17 01:46:56;;;;;;;3.20;2.20;;;15.30;95.00;;;;;;5051797;28;20169;-64
2022/07/17 01:49:22;;;;;;;2.50;2.30;;;15.30;95.40;;;;;;5052077;28;20529;-64
2022/07/17 01:51:48;;;;;;;3.33;2.30;;;15.30;95.40;;;;;;5052288;28;20177;-65
2022/07/17 01:54:13;;;;;;;2.47;2.20;;;15.30;95.50;;;;;;5052275;28;20209;-65
2022/07/17 01:56:39;;;;;;;2.70;2.40;;;15.30;95.50;;;;;;5052221;28;20276;-64
2022/07/17 01:59:04;;;;;;;3.70;2.13;;;15.30;95.40;;;;;;5051899;28;20230;-64
2022/07/17 02:01:30;;;;;;;2.47;2.28;;;15.30;95.60;;;;;;5051914;28;20185;-65
2022/07/17 02:03:55;;;;;;;4.07;2.80;;;15.20;95.60;;;;;;5051969;28;20634;-65
2022/07/17 02:06:21;;;;;;;2.95;2.75;;;15.20;95.70;;;;;;5052015;28;20196;-64
2022/07/17 02:08:49;;;;;;;4.07;2.42;;;15.20;95.80;;;;;;5052346;28;20264;-64
2022/07/17 02:11:15;;;;;;;2.97;2.78;;;15.10;95.90;;;;;;5051700;28;20189;-65
2022/07/17 02:13:40;;;;;;;4.20;2.90;;;15.10;96.00;;;;;;5051526;28;20304;-64
2022/07/17 02:16:06;;;;;;;3.50;2.80;;;15.10;96.20;;;;;;5042872;28;20185;-64
2022/07/17 02:18:32;;;;;;;4.72;2.70;;;15.10;96.30;;;;;;5050565;28;20538;-64
2022/07/17 02:20:57;;;;;;;3.65;2.97;;;15.10;96.30;;;;;;5051339;28;20244;-64
2022/07/17 02:23:23;;;;;;;3.50;3.10;;;15.10;96.30;;;;;;5050624;28;20182;-64
2022/07/17 02:25:48;;;;;;;3.60;2.67;;;15.00;96.30;;;;;;5050396;28;20182;-64
2022/07/17 02:28:14;;;;;;;3.55;2.80;;;15.00;96.40;;;;;;5051081;28;20184;-64
2022/07/17 02:30:40;;;;;;;3.00;2.40;;;15.00;96.70;;;;;;5050264;28;20189;-64
2022/07/17 02:33:06;;;;;;;3.60;2.70;;;15.00;96.30;;;;;;5051602;28;20176;-64
2022/07/17 02:35:32;;;;;;;4.80;2.60;;;15.00;96.00;;;;;;5051293;28;20185;-65
2022/07/17 02:37:58;;;;;;;2.55;2.35;;;15.00;96.00;;;;;;5051351;28;20535;-64
2022/07/17 02:40:23;;;;;;;4.07;2.45;;;15.00;95.90;;;;;;5051571;28;20178;-64
2022/07/17 02:42:49;;;;;;;2.63;2.17;;;14.90;95.60;;;;;;5051621;28;20170;-64
2022/07/17 02:45:15;;;;;;;2.33;2.13;;;14.90;95.20;;;;;;5051531;28;20714;-64
2022/07/17 02:47:41;;;;;;;3.50;2.40;;;14.90;94.90;;;;;;5051560;28;20174;-64
2022/07/17 02:50:08;;;;;;;3.60;2.42;;;14.90;94.70;;;;;;5051461;28;20262;-64
2022/07/17 02:52:34;;;;;;;2.50;2.30;;;14.90;94.60;;;;;;5051511;28;20173;-64
2022/07/17 02:55:00;;;;;;;4.18;3.20;;;14.80;94.50;;;;;;5050898;28;20209;-65
2022/07/17 02:57:26;;;;;;;3.78;2.13;;;14.80;94.60;;;;;;5051243;28;20222;-65
2022/07/17 02:59:51;;;;;;;3.67;2.17;;;14.80;94.70;;;;;;5051424;28;20181;-65
2022/07/17 03:02:17;;;;;;;3.03;2.03;;;14.80;94.80;;;;;;5051048;28;20180;-65
2022/07/17 03:04:42;;;;;;;4.10;2.38;;;14.80;94.80;;;;;;5051216;28;20260;-65
2022/07/17 03:07:08;;;;;;;4.65;2.72;;;14.90;94.60;;;;;;5051208;28;20174;-65
2022/07/17 03:09:34;;;;;;;2.25;2.05;;;14.90;94.60;;;;;;5051368;28;20174;-64
2022/07/17 03:11:59;;;;;;;4.47;2.30;;;14.90;94.50;;;;;;5050968;28;20201;-65
2022/07/17 03:14:25;;;;;;;2.08;1.90;;;14.90;94.50;;;;;;5050966;28;20209;-64
2022/07/17 03:16:50;;;;;;;5.18;2.03;;;14.80;94.50;;;;;;5051049;28;20267;-65
2022/07/17 03:19:16;;;;;;;3.83;1.90;;;14.90;94.40;;;;;;5051023;28;20174;-64
2022/07/17 03:21:41;;;;;;;2.38;2.13;;;14.90;94.30;;;;;;5050952;28;20228;-65
2022/07/17 03:24:07;;;;;;;2.20;2.00;;;14.90;93.90;;;;;;5050837;28;20200;-65
2022/07/17 03:26:33;;;;;;;2.20;2.00;;;14.80;93.80;;;;;;5050872;28;20180;-64
2022/07/17 03:28:58;;;;;;;3.42;1.75;;;14.80;93.70;;;;;;5052903;28;20181;-64
2022/07/17 03:31:24;;;;;;;2.15;1.95;;;14.80;93.90;;;;;;5054849;28;20181;-65
2022/07/17 03:33:49;;;;;;;3.58;1.90;;;14.80;93.90;;;;;;5055203;28;20683;-64
2022/07/17 03:36:15;;;;;;;4.00;1.80;;;14.70;93.80;;;;;;5054604;28;20231;-64
2022/07/17 03:38:40;;;;;;;4.90;2.30;;;14.70;93.60;;;;;;5055301;28;20219;-64
2022/07/17 03:41:06;;;;;;;3.22;1.90;;;14.70;93.70;;;;;;5054572;28;20169;-64
2022/07/17 03:43:31;;;;;;;2.42;2.00;;;14.70;93.80;;;;;;5055007;28;20179;-65
2022/07/17 03:45:57;;;;;;;2.63;1.85;;;14.70;93.80;;;;;;5054444;28;20190;-65
2022/07/17 03:48:22;;;;;;;2.58;2.20;;;14.70;93.60;;;;;;5054537;28;20177;-64
2022/07/17 03:50:48;;;;;;;2.03;1.90;;;14.70;93.80;;;;;;5054325;28;20188;-65
2022/07/17 03:53:13;;;;;;;3.17;2.22;;;14.60;93.90;;;;;;5054348;28;20177;-65
2022/07/17 03:55:39;;;;;;;2.10;1.90;;;14.70;93.80;;;;;;5054096;28;20656;-65
2022/07/17 03:58:05;;;;;;;2.35;1.90;;;14.70;93.70;;;;;;5054815;28;20184;-65
2022/07/17 04:00:30;;;;;;;1.92;1.73;;;14.70;93.60;;;;;;5054236;28;20655;-65
2022/07/17 04:02:56;;;;;;;1.90;1.70;;;14.60;93.60;;;;;;5054201;28;20174;-65
2022/07/17 04:05:21;;;;;;;5.65;1.83;;;14.60;93.60;;;;;;5054006;28;20186;-65
2022/07/17 04:07:47;;;;;;;3.78;1.77;;;14.60;93.70;;;;;;5054515;28;20181;-64
2022/07/17 04:10:14;;;;;;;1.85;1.70;;;14.60;93.80;;;;;;5054140;28;20185;-64
2022/07/17 04:12:40;;;;;;;1.70;1.60;;;14.60;93.80;;;;;;5054140;28;20193;-64
2022/07/17 04:15:07;;;;;;;2.45;1.80;;;14.60;93.70;;;;;;5047323;28;20272;-65
2022/07/17 04:17:32;;;;;;;1.77;1.60;;;14.60;93.60;;;;;;5053792;28;20645;-64
2022/07/17 04:19:58;;;;;;;2.97;1.80;;;14.60;93.60;;;;;;5053505;28;20247;-64
2022/07/17 04:22:24;;;;;;;2.47;1.88;;;14.60;93.50;;;;;;5053475;28;20217;-64
2022/07/17 04:24:50;;;;;;;1.80;1.70;;;14.70;93.40;;;;;;5053916;28;20227;-65
2022/07/17 04:27:16;;;;;;;1.90;1.80;;;14.70;93.20;;;;;;5053190;28;20198;-65
2022/07/17 04:29:41;;;;;;;1.67;1.58;;;14.70;93.00;;;;;;5053894;28;20190;-65
2022/07/17 04:32:07;;;;;;;1.50;1.40;;;14.80;93.00;;;;;;5053715;28;20173;-64
2022/07/17 04:34:33;;;;;;;1.77;1.60;;;14.90;92.90;;;;;;5053569;28;20216;-65
2022/07/17 04:37:00;;;;;;;2.03;1.77;;;15.20;92.90;;;;;;5053561;28;20226;-65
2022/07/17 04:39:26;;;;;;;3.58;1.60;;;15.50;92.50;;;;;;5052900;28;20177;-65
2022/07/17 04:41:51;;;;;;;3.10;1.77;;;15.90;91.90;;;;;;5053329;28;20192;-65
2022/07/17 04:44:17;;;;;;;3.50;1.50;;;16.40;91.20;;;;;;5052805;28;20603;-65
2022/07/17 04:46:43;;;;;;;1.52;1.40;;;16.80;90.40;;;;;;5053657;28;20228;-65
2022/07/17 04:49:09;;;;;;;2.05;1.50;;;17.20;88.90;;;;;;5053315;28;20189;-65
2022/07/17 04:51:34;;;;;;;6.05;1.67;;;17.60;87.70;;;;;;5053039;28;20181;-65
2022/07/17 04:54:00;;;;;;;1.55;1.45;;;18.10;85.60;;;;;;5053212;28;20205;-65
2022/07/17 04:56:26;;;;;;;2.05;1.58;;;18.40;83.60;;;;;;5053202;28;20185;-64
2022/07/17 04:58:52;;;;;;;1.85;1.50;;;18.80;82.10;;;;;;5053248;28;20185;-66
2022/07/17 05:01:17;;;;;;;1.50;1.20;;;19.20;80.40;;;;;;5053308;28;20198;-64
2022/07/17 05:03:43;;;;;;;3.00;1.60;;;19.50;78.60;;;;;;5052787;28;20217;-65
2022/07/17 05:06:09;;;;;;;2.00;1.45;;;19.80;77.40;;;;;;5051825;28;20637;-66
2022/07/17 05:08:35;;;;;;;1.40;1.17;;;20.20;76.00;;;;;;5053206;28;20169;-64
2022/07/17 05:11:00;;;;;;;1.52;1.33;;;20.50;74.60;;;;;;5053061;28;20182;-65
2022/07/17 05:13:26;;;;;;;1.50;1.40;;;20.80;73.40;;;;;;5052957;28;20822;-65
2022/07/17 05:15:51;;;;;;;2.78;1.48;;;21.20;72.20;;;;;;5048930;28;20193;-66
2022/07/17 05:18:17;;;;;;;2.50;1.60;;;21.50;70.40;;;;;;5052918;28;20174;-65
2022/07/17 05:20:43;;;;;;;1.45;1.35;;;21.80;69.50;;;;;;5052374;28;20221;-66
2022/07/17 05:23:08;;;;;;;3.67;1.45;;;22.20;68.40;;;;;;5051976;28;20186;-66
2022/07/17 05:25:34;;;;;;;1.35;1.25;;;22.60;66.70;;;;;;5052963;28;20640;-65
2022/07/17 05:28:01;;;;;;;2.13;1.30;;;23.10;65.70;;;;;;5052710;28;20234;-65
2022/07/17 05:30:27;;;;;;;1.83;1.30;;;23.30;63.10;;;;;;5070007;28;20165;-66
2022/07/17 05:32:52;;;;;;;2.22;1.20;;;23.60;62.00;;;;;;5064618;28;20249;-65
2022/07/17 05:35:17;;;;;;;1.90;1.20;;;23.70;61.30;;;;;;5053769;28;20568;-65
2022/07/17 05:37:43;;;;;;;1.52;1.20;;;23.80;59.70;;;;;;5053372;28;20177;-65
2022/07/17 05:40:09;;;;;;;2.45;1.08;;;24.00;59.30;;;;;;5052974;28;20260;-65
2022/07/17 05:42:34;;;;;;;2.55;1.30;;;24.20;58.90;;;;;;5053306;28;20276;-65
2022/07/17 05:45:00;;;;;;;2.67;1.15;;;24.60;58.20;;;;;;5053335;28;20173;-65
2022/07/17 05:47:25;;;;;;;3.28;1.10;;;24.80;56.70;;;;;;5052989;28;20178;-66
2022/07/17 05:49:51;;;;;;;3.70;1.15;;;25.00;56.00;;;;;;5051311;28;20189;-65
2022/07/17 05:52:17;;;;;;;1.50;1.40;;;25.30;55.50;;;;;;5052421;28;20184;-65
2022/07/17 05:54:42;;;;;;;2.70;1.30;;;25.60;54.50;;;;;;5051036;28;20241;-65
2022/07/17 05:57:08;;;;;;;4.38;1.80;;;25.90;53.80;;;;;;5051681;28;20233;-65
2022/07/17 05:59:34;;;;;;;1.23;1.10;;;26.00;53.00;;;;;;5052491;28;20181;-65
2022/07/17 06:02:00;;;;;;;1.80;1.30;;;26.30;52.80;;;;;;5052104;28;20190;-65
2022/07/17 06:04:25;;;;;;;1.27;1.15;;;26.70;51.80;;;;;;5051215;28;20173;-65
2022/07/17 06:06:51;;;;;;;1.40;1.00;;;27.10;50.60;;;;;;5051952;28;20174;-65
2022/07/17 06:09:16;;;;;;;1.63;1.20;;;27.40;49.70;;;;;;5052190;28;20174;-64
2022/07/17 06:11:42;;;;;;;1.90;1.23;;;27.60;49.50;;;;;;5051112;28;20188;-65
2022/07/17 06:14:07;;;;;;;3.60;1.80;;;27.90;48.90;;;;;;5049115;28;20221;-65
2022/07/17 06:16:33;;;;;;;1.40;1.30;;;28.10;47.90;;;;;;5032359;28;20753;-65
2022/07/17 06:18:58;;;;;;;1.75;1.27;;;28.20;47.40;;;;;;5049538;28;20268;-65
2022/07/17 06:21:24;;;;;;;1.35;1.25;;;28.60;47.30;;;;;;5051508;28;20715;-65
2022/07/17 06:23:49;;;;;;;1.48;1.17;;;28.90;46.70;;;;;;5051640;28;20181;-65
2022/07/17 06:26:15;;;;;;;1.85;1.30;;;29.30;46.40;;;;;;5051636;28;20181;-65
2022/07/17 06:28:40;;;;;;;2.05;1.15;;;29.40;45.30;;;;;;5052086;28;20191;-65
2022/07/17 06:31:06;;;;;;;2.95;1.92;;;29.70;45.30;;;;;;5050154;28;20196;-65
2022/07/17 06:33:31;;;;;;;1.98;1.30;;;30.10;44.90;;;;;;5051594;28;20232;-65
2022/07/17 06:35:57;;;;;;;2.50;1.23;;;30.30;43.60;;;;;;5051975;28;20584;-65
2022/07/17 06:38:22;;;;;;;1.98;1.30;;;30.20;43.10;;;;;;5051791;28;20170;-65
2022/07/17 06:40:48;;;;;;;2.67;1.48;;;30.40;43.10;;;;;;5051822;28;20648;-65
2022/07/17 06:43:14;;;;;;;4.20;1.15;;;30.60;43.10;;;;;;5051877;28;20169;-65
2022/07/17 06:45:39;;;;;;;1.23;1.20;;;30.80;43.00;;;;;;5050720;28;20174;-65
2022/07/17 06:48:05;;;;;;;3.13;1.42;;;31.00;42.40;;;;;;5051715;28;20204;-65
2022/07/17 06:50:30;;;;;;;1.52;1.20;;;31.00;42.10;;;;;;5051787;28;20213;-65
2022/07/17 06:52:58;;;;;;;1.65;1.17;;;31.10;42.00;;;;;;5051715;28;20170;-65
2022/07/17 06:55:23;;;;;;;1.95;1.35;;;31.10;42.10;;;;;;5051625;28;20208;-66
2022/07/17 06:57:49;;;;;;;2.92;1.42;;;31.40;41.50;;;;;;5051643;28;20222;-65
2022/07/17 07:00:15;;;;;;;1.98;1.60;;;31.30;41.40;;;;;;5050362;28;20185;-65
2022/07/17 07:02:40;;;;;;;2.25;1.00;;;31.60;41.90;;;;;;5051644;28;20256;-65
2022/07/17 07:05:06;;;;;;;2.22;1.23;;;32.10;41.10;;;;;;5054319;28;20185;-65
2022/07/17 07:07:32;;;;;;;1.67;1.30;;;32.60;41.00;;;;;;5054580;28;20173;-65
2022/07/17 07:09:57;;;;;;;2.22;1.20;;;32.90;40.40;;;;;;5055792;28;20173;-65
2022/07/17 07:12:23;;;;;;;1.17;1.08;;;33.20;39.60;;;;;;5055536;28;20184;-65
2022/07/17 07:14:48;;;;;;;1.48;1.20;;;33.20;39.30;;;;;;5048955;28;20209;-65
2022/07/17 07:17:14;;;;;;;2.38;1.23;;;33.30;39.60;;;;;;5035654;28;20224;-65
2022/07/17 07:19:39;;;;;;;1.30;1.20;;;33.40;39.20;;;;;;5051080;28;20181;-65
2022/07/17 07:22:05;;;;;;;1.00;1.00;;;33.50;39.00;;;;;;5054854;28;20228;-65
2022/07/17 07:24:30;;;;;;;1.98;1.30;;;33.60;38.70;;;;;;5055356;28;20175;-65
2022/07/17 07:26:56;;;;;;;1.50;1.40;;;33.90;38.60;;;;;;5054093;28;20200;-65
2022/07/17 07:29:21;;;;;;;2.33;1.13;;;33.70;37.60;;;;;;5055375;28;20169;-65
2022/07/17 07:31:47;;;;;;;0.90;0.90;;;33.50;37.70;;;;;;5055210;28;20678;-65
2022/07/17 07:34:13;;;;;;;1.60;1.50;;;33.40;38.40;;;;;;5055181;28;20220;-65
2022/07/17 07:36:39;;;;;;;2.90;1.40;;;33.70;39.50;;;;;;5055306;28;20201;-65
2022/07/17 07:39:04;;;;;;;1.45;1.27;;;33.80;37.50;;;;;;5055121;28;20204;-65
2022/07/17 07:41:30;;;;;;;1.35;1.25;;;33.40;37.70;;;;;;5055243;28;20718;-65
2022/07/17 07:43:55;;;;;;;1.17;1.10;;;33.00;38.50;;;;;;5055222;28;20259;-65
2022/07/17 07:46:21;;;;;;;1.90;1.17;;;33.30;38.30;;;;;;5055146;28;20268;-65
2022/07/17 07:48:46;;;;;;;1.48;1.00;;;33.60;38.10;;;;;;5054952;28;20575;-65
2022/07/17 07:51:12;;;;;;;1.48;1.38;;;33.90;38.00;;;;;;5053609;28;20189;-65
2022/07/17 07:53:37;;;;;;;2.42;1.38;;;34.30;37.40;;;;;;5054991;28;20234;-65
2022/07/17 07:56:03;;;;;;;2.38;1.30;;;33.90;37.20;;;;;;5054861;28;20185;-65
2022/07/17 07:58:29;;;;;;;1.75;1.10;;;34.00;37.40;;;;;;5054724;28;20234;-65
2022/07/17 08:00:54;;;;;;;1.98;1.30;;;33.80;37.00;;;;;;5054909;28;20180;-65
2022/07/17 08:03:20;;;;;;;5.25;1.17;;;33.70;37.40;;;;;;5054647;28;20173;-66
2022/07/17 08:05:46;;;;;;;3.28;1.35;;;33.60;37.60;;;;;;5053327;28;20176;-66
2022/07/17 08:08:11;;;;;;;3.53;1.33;;;33.70;37.50;;;;;;5054569;28;20885;-65
2022/07/17 08:10:37;;;;;;;1.83;1.20;;;33.90;37.90;;;;;;5054617;28;20185;-65
2022/07/17 08:13:02;;;;;;;1.27;1.00;;;34.10;36.60;;;;;;5054617;28;20181;-66
2022/07/17 08:15:29;;;;;;;1.40;1.30;;;34.30;37.90;;;;;;5042178;28;20245;-65
2022/07/17 08:17:55;;;;;;;1.42;1.27;;;34.30;37.50;;;;;;5034585;28;20668;-66
2022/07/17 08:20:21;;;;;;;2.72;1.30;;;34.20;37.00;;;;;;5039545;28;20204;-66
2022/07/17 08:22:48;;;;;;;1.38;1.08;;;34.20;36.90;;;;;;5054381;28;20191;-65
2022/07/17 08:25:14;;;;;;;1.88;1.17;;;34.20;38.10;;;;;;5054367;28;20636;-66
2022/07/17 08:27:41;;;;;;;2.80;1.30;;;34.30;37.40;;;;;;5054382;28;20212;-65
2022/07/17 08:30:09;;;;;;;3.60;1.15;;;34.40;37.40;;;;;;5052814;28;20181;-66
2022/07/17 08:32:35;;;;;;;2.42;1.75;;;34.60;37.60;;;;;;5053978;28;20183;-65
2022/07/17 08:35:01;;;;;;;4.13;1.52;;;34.90;37.40;;;;;;5054041;28;20213;-66
2022/07/17 08:37:27;;;;;;;1.45;1.13;;;35.10;37.40;;;;;;5053235;28;20218;-65
2022/07/17 08:39:52;;;;;;;1.60;1.30;;;35.10;36.20;;;;;;5054045;28;20651;-66
2022/07/17 08:42:18;;;;;;;1.10;1.00;;;34.90;35.90;;;;;;5053499;28;20569;-66
2022/07/17 08:44:44;;;;;;;2.80;1.30;;;34.70;36.40;;;;;;5053954;28;20651;-66
2022/07/17 08:47:11;;;;;;;1.10;1.10;;;34.60;35.90;;;;;;5053274;28;20184;-65
2022/07/17 08:49:43;;;;;;;1.55;1.08;;;34.70;36.40;;;;;;5053592;28;20529;-66
2022/07/17 08:52:12;;;;;;;2.15;1.90;;;34.60;35.90;;;;;;5053708;28;20569;-66
2022/07/17 08:54:39;;;;;;;1.52;1.10;;;34.50;37.00;;;;;;5053452;28;20745;-65
2022/07/17 08:57:05;;;;;;;3.22;1.17;;;34.60;36.00;;;;;;5053332;28;20184;-65
2022/07/17 08:59:31;;;;;;;1.15;1.05;;;34.70;35.40;;;;;;5053899;28;20525;-65
2022/07/17 09:01:58;;;;;;;1.08;1.00;;;34.50;35.20;;;;;;5053339;28;20597;-66
2022/07/17 09:04:24;;;;;;;2.15;1.25;;;34.30;36.00;;;;;;5053144;28;20181;-66
2022/07/17 09:07:01;;;;;;;1.42;1.30;;;34.10;37.10;;;;;;5053419;28;20181;-65
2022/07/17 09:09:28;;;;;;;1.20;1.10;;;34.10;37.10;;;;;;5053416;28;20184;-65
2022/07/17 09:11:55;;;;;;;1.08;0.98;;;34.30;37.10;;;;;;5053324;28;20177;-66
2022/07/17 09:14:21;;;;;;;1.63;1.20;;;34.30;36.10;;;;;;5048581;28;20539;-66
2022/07/17 09:17:00;;;;;;;4.13;1.42;;;34.10;35.90;;;;;;5045485;28;20183;-65
2022/07/17 09:19:28;;;;;;;2.35;1.45;;;33.70;36.60;;;;;;5051941;28;20180;-65
2022/07/17 09:22:08;;;;;;;1.35;1.20;;;33.60;37.00;;;;;;5052818;28;20278;-65
2022/07/17 09:24:55;;;;;;;1.25;1.15;;;33.80;37.30;;;;;;5052899;28;20177;-65
2022/07/17 09:27:23;;;;;;;1.13;1.10;;;34.00;35.80;;;;;;5052505;28;20255;-65
2022/07/17 09:30:11;;;;;;;1.13;1.10;;;34.00;36.10;;;;;;5053274;28;20260;-65
2022/07/17 09:32:38;;;;;;;1.58;1.05;;;34.00;35.50;;;;;;5052755;28;20189;-65
2022/07/17 09:35:06;;;;;;;2.15;1.20;;;33.80;35.30;;;;;;5051442;28;20213;-65
2022/07/17 09:37:32;;;;;;;1.35;1.25;;;33.50;35.00;;;;;;5052595;28;20681;-65
2022/07/17 09:39:58;;;;;;;1.25;1.15;;;33.30;34.80;;;;;;5051484;28;20276;-65
2022/07/17 09:42:29;;;;;;;2.05;1.20;;;33.00;34.90;;;;;;5052574;28;20177;-66
2022/07/17 09:45:01;;;;;;;1.15;1.10;;;32.90;35.70;;;;;;5052694;28;20177;-66
2022/07/17 09:47:28;;;;;;;1.80;1.20;;;32.80;35.90;;;;;;5052132;28;20189;-65
2022/07/17 09:49:54;;;;;;;2.40;1.15;;;32.80;37.20;;;;;;5052735;28;20177;-63
2022/07/17 09:52:23;;;;;;;3.20;1.00;;;33.00;35.60;;;;;;5051756;28;20169;-64
2022/07/17 09:54:52;;;;;;;1.40;1.10;;;33.20;35.60;;;;;;5052196;28;20362;-63
2022/07/17 09:57:19;;;;;;;2.33;1.20;;;33.40;35.10;;;;;;5051791;28;20276;-65
2022/07/17 09:59:46;;;;;;;1.15;1.05;;;33.50;35.00;;;;;;5051808;28;20272;-66
2022/07/17 10:02:12;;;;;;;6.05;2.90;;;33.60;35.90;;;;;;5052473;28;20240;-66
2022/07/17 10:04:37;;;;;;;3.70;1.40;;;33.80;35.30;;;;;;5051952;28;20319;-66
2022/07/17 10:07:03;;;;;;;2.75;1.45;;;34.10;34.30;;;;;;5052392;28;20616;-66
2022/07/17 10:09:30;;;;;;;1.15;1.15;;;33.70;33.90;;;;;;5051945;28;20196;-66
2022/07/17 10:11:56;;;;;;;2.95;1.08;;;33.40;34.90;;;;;;5052330;28;20181;-66
2022/07/17 10:14:22;;;;;;;3.60;1.10;;;33.10;35.50;;;;;;5048886;28;20743;-66
2022/07/17 10:16:47;;;;;;;2.42;1.30;;;33.30;36.90;;;;;;5051540;28;20520;-66
2022/07/17 10:19:22;;;;;;;1.85;1.50;;;33.60;35.70;;;;;;5051740;28;20188;-66
2022/07/17 10:22:04;;;;;;;2.33;1.30;;;33.60;35.20;;;;;;5052029;28;20706;-66
2022/07/17 10:24:30;;;;;;;1.48;1.33;;;33.80;36.30;;;;;;5051766;28;20196;-66
2022/07/17 10:26:57;;;;;;;1.55;1.20;;;33.80;35.90;;;;;;5052029;28;20161;-64
2022/07/17 10:29:29;;;;;;;0.98;0.88;;;33.90;34.70;;;;;;5051760;28;20193;-64
2022/07/17 10:31:56;;;;;;;1.13;1.00;;;33.80;31.90;;;;;;5051787;28;20204;-64
2022/07/17 10:34:45;;;;;;;0.90;0.90;;;33.90;32.40;;;;;;5051147;28;20291;-65
2022/07/17 10:37:21;;;;;;;1.70;1.10;;;33.70;32.10;;;;;;5050994;28;20268;-64
2022/07/17 10:39:54;;;;;;;1.52;1.20;;;33.60;33.20;;;;;;5039436;28;20234;-64
2022/07/17 10:42:39;;;;;;;1.10;1.00;;;33.70;33.60;;;;;;5051296;28;20636;-64
2022/07/17 10:45:10;;;;;;;1.20;1.10;;;33.80;33.30;;;;;;5051444;28;20188;-64
2022/07/17 10:47:45;;;;;;;1.30;1.20;;;33.80;32.40;;;;;;5049561;28;20180;-65
2022/07/17 10:50:12;;;;;;;1.30;1.10;;;33.60;32.20;;;;;;5049671;28;20663;-64
2022/07/17 10:52:37;;;;;;;1.42;1.30;;;33.60;33.40;;;;;;5051231;28;20185;-65
2022/07/17 10:55:05;;;;;;;1.77;1.10;;;33.60;31.80;;;;;;5051461;28;20664;-63
2022/07/17 10:57:32;;;;;;;1.65;1.30;;;33.70;31.80;;;;;;5031763;28;20169;-63
2022/07/17 10:59:57;;;;;;;1.02;1.00;;;33.80;32.20;;;;;;5031716;28;20182;-63
2022/07/17 11:02:29;;;;;;;1.15;1.13;;;33.80;32.10;;;;;;5031807;28;20180;-63
2022/07/17 11:05:14;;;;;;;1.40;1.00;;;33.60;32.80;;;;;;5031742;28;20178;-65
2022/07/17 11:07:55;;;;;;;3.55;2.47;;;33.30;34.00;;;;;;5031960;28;20174;-65
2022/07/17 11:10:23;;;;;;;1.60;1.50;;;33.30;33.50;;;;;;5031697;28;20188;-65
2022/07/17 11:12:51;;;;;;;3.88;0.98;;;33.60;33.30;;;;;;5031771;28;20652;-65
2022/07/17 11:15:17;;;;;;;1.48;1.35;;;33.80;33.10;;;;;;5032976;28;20772;-66
2022/07/17 11:17:48;;;;;;;2.28;1.20;;;34.00;33.10;;;;;;5031676;28;20252;-65
2022/07/17 11:20:15;;;;;;;2.17;1.10;;;34.00;32.30;;;;;;5035527;28;20189;-66
2022/07/17 11:22:40;;;;;;;1.10;0.95;;;34.10;31.80;;;;;;5051636;28;20212;-65
2022/07/17 11:25:06;;;;;;;3.65;1.33;;;34.00;31.50;;;;;;5051391;28;20701;-65
2022/07/17 11:27:32;;;;;;;4.38;1.30;;;34.00;31.60;;;;;;5051506;28;20191;-65
2022/07/17 11:30:00;;;;;;;1.58;0.90;;;34.30;32.60;;;;;;5051368;28;20537;-65
2022/07/17 11:32:37;;;;;;;1.00;1.00;;;34.40;31.00;;;;;;5051379;28;20181;-65
2022/07/17 11:35:20;;;;;;;1.35;1.25;;;34.20;31.20;;;;;;5050123;28;20228;-66
2022/07/17 11:37:48;;;;;;;2.95;1.05;;;33.80;31.30;;;;;;5051453;28;20169;-65
2022/07/17 11:40:13;;;;;;;0.98;0.90;;;33.60;31.90;;;;;;5051112;28;20192;-66
2022/07/17 11:42:39;;;;;;;0.93;0.93;;;33.30;31.20;;;;;;5051399;28;20173;-65
2022/07/17 11:45:05;;;;;;;1.70;0.88;;;33.30;31.60;;;;;;5051350;28;20181;-65
2022/07/17 11:47:31;;;;;;;1.20;1.10;;;33.40;32.40;;;;;;5051213;28;20169;-65
2022/07/17 11:50:13;;;;;;;1.98;1.20;;;33.60;30.80;;;;;;5053035;28;20177;-65
2022/07/17 11:52:41;;;;;;;2.72;0.90;;;33.80;30.80;;;;;;5055061;28;20173;-65
2022/07/17 11:55:07;;;;;;;2.30;1.15;;;34.00;30.70;;;;;;5054660;28;20221;-65
2022/07/17 11:57:42;;;;;;;1.00;0.90;;;33.80;31.20;;;;;;5055000;28;20293;-65
2022/07/17 12:00:09;;;;;;;2.45;1.10;;;33.90;33.10;;;;;;5054384;28;20176;-62
2022/07/17 12:02:34;;;;;;;1.45;1.00;;;34.00;30.00;;;;;;5054535;28;20187;-62
2022/07/17 12:05:00;;;;;;;1.35;1.00;;;33.90;30.00;;;;;;5054776;28;20177;-62
2022/07/17 12:07:45;;;;;;;1.10;1.00;;;34.10;30.20;;;;;;5054595;28;20169;-65
2022/07/17 12:10:15;;;;;;;1.20;1.10;;;34.20;30.00;;;;;;5054653;28;20242;-65
2022/07/17 12:12:51;;;;;;;0.80;0.80;;;34.30;29.90;;;;;;5054719;28;20620;-65
2022/07/17 12:15:17;;;;;;;1.15;1.10;;;34.30;29.20;;;;;;5043725;28;20225;-65
2022/07/17 12:17:42;;;;;;;0.80;0.80;;;34.30;29.20;;;;;;5034671;28;20178;-65
2022/07/17 12:20:08;;;;;;;1.25;1.10;;;34.10;28.80;;;;;;5037951;28;20169;-65
2022/07/17 12:22:44;;;;;;;2.08;0.85;;;33.80;28.80;;;;;;5054241;28;20676;-65
2022/07/17 12:25:09;;;;;;;1.20;1.10;;;33.50;29.40;;;;;;5054370;28;20758;-65
2022/07/17 12:27:35;;;;;;;0.82;0.80;;;33.40;29.50;;;;;;5054145;28;20193;-65
2022/07/17 12:30:00;;;;;;;4.97;1.23;;;33.50;29.80;;;;;;5054294;28;20192;-65
2022/07/17 12:32:26;;;;;;;1.10;1.05;;;33.60;29.80;;;;;;5036355;28;20173;-65
2022/07/17 12:34:52;;;;;;;1.20;0.80;;;33.60;30.00;;;;;;5054180;28;20282;-65
2022/07/17 12:37:21;;;;;;;1.25;1.05;;;33.70;30.70;;;;;;5052745;28;20707;-65
2022/07/17 12:39:49;;;;;;;1.10;1.10;;;33.90;29.40;;;;;;5054249;28;20188;-65
2022/07/17 12:42:15;;;;;;;1.30;1.20;;;33.70;28.90;;;;;;5053976;28;20528;-65
2022/07/17 12:44:42;;;;;;;2.13;0.95;;;33.50;28.90;;;;;;5053955;28;20655;-65
2022/07/17 12:47:08;;;;;;;1.25;1.00;;;33.40;29.10;;;;;;5053835;28;20524;-65
2022/07/17 12:49:33;;;;;;;1.90;1.10;;;33.20;29.40;;;;;;5053969;28;20181;-65